createdAt,value
2018-02-16T00:01:35.332Z,65.43
2018-02-16T00:03:12.513Z,65.42
2018-02-16T00:04:50.227Z,65.44
2018-02-16T00:06:27.000Z,65.43
2018-02-16T00:08:03.390Z,65.42
2018-02-16T00:09:40.259Z,65.43
2018-02-16T00:11:16.695Z,65.41
2018-02-16T00:12:54.050Z,65.42
2018-02-16T00:14:30.545Z,65.42
2018-02-16T00:16:13.754Z,65.40
2018-02-16T00:17:57.257Z,65.39
2018-02-16T00:19:35.514Z,65.38
2018-02-16T00:21:14.154Z,65.37
2018-02-16T00:22:55.176Z,65.34
2018-02-16T00:24:31.572Z,65.33
2018-02-16T00:26:07.954Z,65.35
2018-02-16T00:27:44.626Z,65.35
2018-02-16T00:29:21.568Z,65.35
2018-02-16T00:30:58.032Z,65.35
2018-02-16T00:32:34.417Z,65.34
2018-02-16T00:34:10.846Z,65.33
2018-02-16T00:35:49.499Z,65.34
2018-02-16T00:37:25.883Z,65.33
2018-02-16T00:39:02.407Z,65.34
2018-02-16T00:40:39.001Z,65.34
2018-02-16T00:42:16.354Z,65.33
2018-02-16T00:43:52.905Z,65.33
2018-02-16T00:45:29.524Z,65.30
2018-02-16T00:47:05.925Z,65.29
2018-02-16T00:48:43.849Z,65.30
2018-02-16T00:50:20.434Z,65.28
2018-02-16T00:51:57.723Z,65.23
2018-02-16T00:53:34.724Z,65.23
2018-02-16T00:55:12.162Z,65.23
2018-02-16T00:56:48.654Z,65.23
2018-02-16T00:58:26.841Z,65.21
2018-02-16T01:00:04.483Z,65.23
2018-02-16T01:01:44.362Z,65.22
2018-02-16T01:03:24.441Z,65.21
2018-02-16T01:05:04.625Z,65.18
2018-02-16T01:06:41.390Z,65.17
2018-02-16T01:08:18.287Z,65.17
2018-02-16T01:09:55.515Z,65.13
2018-02-16T01:11:31.876Z,65.13
2018-02-16T01:13:08.262Z,65.12
2018-02-16T01:14:45.886Z,65.10
2018-02-16T01:16:23.454Z,65.06
2018-02-16T01:17:59.907Z,65.05
2018-02-16T01:19:36.228Z,65.04
2018-02-16T01:21:12.645Z,65.05
2018-02-16T01:22:49.661Z,65.07
2018-02-16T01:24:26.025Z,65.05
2018-02-16T01:26:02.456Z,65.01
2018-02-16T01:27:40.251Z,64.97
2018-02-16T01:29:17.440Z,64.95
2018-02-16T01:30:54.952Z,64.95
2018-02-16T01:32:31.564Z,64.94
2018-02-16T01:34:08.199Z,64.95
2018-02-16T01:35:44.463Z,64.97
2018-02-16T01:37:20.800Z,64.99
2018-02-16T01:38:58.153Z,65.00
2018-02-16T01:40:34.930Z,65.00
2018-02-16T01:42:11.684Z,65.00
2018-02-16T01:43:48.060Z,65.01
2018-02-16T01:45:26.172Z,65.04
2018-02-16T01:47:03.736Z,65.06
2018-02-16T01:48:40.134Z,65.09
2018-02-16T01:50:16.939Z,65.10
2018-02-16T01:51:53.311Z,65.10
2018-02-16T01:53:29.659Z,65.10
2018-02-16T01:55:06.012Z,65.11
2018-02-16T01:56:42.361Z,65.10
2018-02-16T01:58:18.722Z,65.11
2018-02-16T01:59:55.427Z,65.10
2018-02-16T02:01:32.258Z,65.09
2018-02-16T02:03:09.410Z,65.08
2018-02-16T02:04:45.800Z,65.09
2018-02-16T02:06:23.278Z,65.09
2018-02-16T02:07:59.638Z,65.10
2018-02-16T02:09:36.858Z,65.06
2018-02-16T02:11:13.248Z,65.03
2018-02-16T02:12:50.021Z,65.02
2018-02-16T02:14:26.505Z,65.02
2018-02-16T02:16:03.032Z,65.02
2018-02-16T02:17:39.340Z,65.02
2018-02-16T02:19:17.019Z,65.02
2018-02-16T02:20:53.366Z,65.02
2018-02-16T02:22:29.808Z,65.02
2018-02-16T02:24:06.175Z,65.00
2018-02-16T02:25:42.629Z,65.00
2018-02-16T02:27:18.976Z,65.00
2018-02-16T02:28:55.278Z,65.00
2018-02-16T02:30:33.136Z,64.98
2018-02-16T02:32:10.672Z,64.93
2018-02-16T02:33:46.991Z,64.90
2018-02-16T02:35:23.394Z,64.87
2018-02-16T02:36:59.704Z,64.81
2018-02-16T02:38:37.198Z,64.75
2018-02-16T02:40:13.532Z,64.71
2018-02-16T02:41:51.677Z,64.69
2018-02-16T02:43:28.009Z,64.69
2018-02-16T02:45:05.538Z,64.70
2018-02-16T02:46:42.438Z,64.72
2018-02-16T02:48:18.699Z,64.72
2018-02-16T02:49:55.171Z,64.74
2018-02-16T02:51:31.852Z,64.75
2018-02-16T02:53:08.201Z,64.77
2018-02-16T02:54:45.041Z,64.79
2018-02-16T02:56:21.318Z,64.83
2018-02-16T02:57:57.634Z,64.85
2018-02-16T02:59:34.721Z,64.86
2018-02-16T03:01:11.410Z,64.89
2018-02-16T03:02:48.387Z,64.88
2018-02-16T03:04:25.119Z,64.84
2018-02-16T03:06:01.464Z,64.82
2018-02-16T03:07:37.914Z,64.82
2018-02-16T03:09:14.273Z,64.82
2018-02-16T03:10:51.001Z,64.82
2018-02-16T03:12:27.284Z,64.82
2018-02-16T03:14:04.465Z,64.84
2018-02-16T03:15:41.001Z,64.86
2018-02-16T03:17:17.905Z,64.87
2018-02-16T03:18:54.253Z,64.89
2018-02-16T03:20:30.647Z,64.89
2018-02-16T03:22:07.041Z,64.89
2018-02-16T03:23:44.518Z,64.88
2018-02-16T03:25:21.616Z,64.87
2018-02-16T03:26:58.012Z,64.86
2018-02-16T03:28:34.393Z,64.86
2018-02-16T03:30:11.129Z,64.88
2018-02-16T03:31:48.069Z,64.91
2018-02-16T03:34:57.514Z,64.96
2018-02-16T03:36:34.204Z,64.96
2018-02-16T03:38:11.765Z,64.95
2018-02-16T03:39:52.697Z,64.94
2018-02-16T03:41:29.827Z,64.93
2018-02-16T03:43:08.508Z,64.91
2018-02-16T03:44:46.794Z,64.88
2018-02-16T03:46:23.751Z,64.83
2018-02-16T03:48:00.414Z,64.87
2018-02-16T03:49:37.321Z,64.87
2018-02-16T03:51:13.645Z,64.86
2018-02-16T03:52:51.683Z,64.86
2018-02-16T03:54:28.110Z,64.87
2018-02-16T03:56:05.404Z,64.89
2018-02-16T03:57:41.766Z,64.88
2018-02-16T03:59:18.793Z,64.86
2018-02-16T04:00:55.650Z,64.85
2018-02-16T04:02:32.355Z,64.85
2018-02-16T04:04:09.432Z,64.85
2018-02-16T04:05:46.089Z,64.86
2018-02-16T04:07:22.586Z,64.86
2018-02-16T04:08:58.872Z,64.88
2018-02-16T04:10:35.386Z,64.90
2018-02-16T04:12:11.749Z,64.91
2018-02-16T04:13:48.181Z,64.91
2018-02-16T04:15:26.393Z,64.91
2018-02-16T04:17:02.646Z,64.89
2018-02-16T04:18:38.973Z,64.91
2018-02-16T04:20:15.301Z,64.94
2018-02-16T04:21:52.207Z,64.95
2018-02-16T04:23:28.575Z,64.98
2018-02-16T04:25:04.895Z,64.98
2018-02-16T04:26:41.261Z,64.97
2018-02-16T04:28:17.987Z,64.93
2018-02-16T04:29:55.118Z,64.91
2018-02-16T04:31:31.925Z,64.87
2018-02-16T04:33:09.113Z,64.84
2018-02-16T04:34:45.702Z,64.84
2018-02-16T04:36:22.020Z,64.86
2018-02-16T04:37:59.144Z,64.87
2018-02-16T04:39:35.491Z,64.88
2018-02-16T04:41:12.214Z,64.87
2018-02-16T04:42:49.107Z,64.85
2018-02-16T04:44:26.174Z,64.84
2018-02-16T04:46:02.820Z,64.83
2018-02-16T04:47:39.637Z,64.81
2018-02-16T04:49:15.929Z,64.81
2018-02-16T04:50:52.320Z,64.82
2018-02-16T04:52:28.600Z,64.83
2018-02-16T04:54:05.008Z,64.83
2018-02-16T04:55:41.765Z,64.83
2018-02-16T04:57:18.613Z,64.82
2018-02-16T04:58:55.205Z,64.82
2018-02-16T05:00:32.401Z,64.83
2018-02-16T05:02:09.104Z,64.84
2018-02-16T05:03:45.432Z,64.84
2018-02-16T05:05:22.005Z,64.83
2018-02-16T05:06:59.113Z,64.85
2018-02-16T05:08:35.421Z,64.87
2018-02-16T05:10:11.965Z,64.88
2018-02-16T05:11:49.048Z,64.88
2018-02-16T05:13:25.930Z,64.87
2018-02-16T05:15:03.400Z,64.85
2018-02-16T05:16:40.094Z,64.86
2018-02-16T05:18:16.478Z,64.85
2018-02-16T05:19:53.779Z,64.80
2018-02-16T05:21:30.042Z,64.73
2018-02-16T05:23:06.525Z,64.74
2018-02-16T05:24:43.577Z,64.78
2018-02-16T05:26:20.287Z,64.78
2018-02-16T05:27:56.649Z,64.74
2018-02-16T05:29:33.218Z,64.68
2018-02-16T05:31:09.766Z,64.66
2018-02-16T05:32:47.300Z,64.66
2018-02-16T05:34:23.616Z,64.68
2018-02-16T05:36:00.731Z,64.71
2018-02-16T05:37:37.124Z,64.74
2018-02-16T05:39:13.785Z,64.76
2018-02-16T05:40:50.147Z,64.77
2018-02-16T05:42:26.515Z,64.79
2018-02-16T05:44:02.820Z,64.77
2018-02-16T05:45:40.529Z,64.77
2018-02-16T05:47:16.839Z,64.78
2018-02-16T05:48:54.423Z,64.79
2018-02-16T05:50:30.708Z,64.82
2018-02-16T05:52:07.869Z,64.84
2018-02-16T05:53:44.153Z,64.83
2018-02-16T05:55:21.172Z,64.82
2018-02-16T05:56:57.490Z,64.83
2018-02-16T05:58:34.866Z,64.84
2018-02-16T06:00:11.176Z,64.84
2018-02-16T06:01:47.772Z,64.84
2018-02-16T06:03:24.048Z,64.83
2018-02-16T06:05:00.495Z,64.83
2018-02-16T06:06:36.901Z,64.85
2018-02-16T06:08:14.792Z,64.84
2018-02-16T06:09:51.142Z,64.78
2018-02-16T06:11:28.206Z,64.73
2018-02-16T06:13:05.349Z,64.68
2018-02-16T06:14:41.660Z,64.63
2018-02-16T06:16:19.248Z,64.62
2018-02-16T06:17:57.158Z,64.62
2018-02-16T06:19:34.205Z,64.63
2018-02-16T06:21:10.551Z,64.59
2018-02-16T06:22:47.138Z,64.61
2018-02-16T06:24:23.448Z,64.63
2018-02-16T06:25:59.813Z,64.67
2018-02-16T06:27:36.236Z,64.70
2018-02-16T06:29:12.883Z,64.73
2018-02-16T06:30:49.402Z,64.77
2018-02-16T06:32:25.794Z,64.78
2018-02-16T06:34:02.268Z,64.76
2018-02-16T06:35:38.872Z,64.71
2018-02-16T06:37:16.884Z,64.66
2018-02-16T06:38:54.039Z,64.62
2018-02-16T06:40:30.381Z,64.58
2018-02-16T06:42:07.058Z,64.54
2018-02-16T06:43:43.724Z,64.56
2018-02-16T06:45:21.049Z,64.59
2018-02-16T06:46:58.829Z,64.62
2018-02-16T06:48:36.467Z,64.66
2018-02-16T06:50:19.903Z,64.70
2018-02-16T06:51:56.368Z,64.75
2018-02-16T06:53:32.716Z,64.79
2018-02-16T06:55:10.475Z,64.82
2018-02-16T06:56:46.801Z,64.86
2018-02-16T06:58:23.087Z,64.88
2018-02-16T06:59:59.471Z,64.87
2018-02-16T07:01:36.418Z,64.84
2018-02-16T07:03:13.645Z,64.83
2018-02-16T07:04:50.196Z,64.80
2018-02-16T07:06:26.606Z,64.78
2018-02-16T07:08:04.597Z,64.78
2018-02-16T07:09:40.990Z,64.79
2018-02-16T07:11:17.283Z,64.80
2018-02-16T07:12:53.637Z,64.82
2018-02-16T07:14:30.476Z,64.82
2018-02-16T07:16:11.911Z,64.82
2018-02-16T07:17:48.312Z,64.82
2018-02-16T07:19:24.686Z,64.84
2018-02-16T07:21:02.573Z,64.83
2018-02-16T07:22:39.229Z,64.85
2018-02-16T07:24:15.624Z,64.87
2018-02-16T07:25:51.975Z,64.85
2018-02-16T07:27:28.840Z,64.86
2018-02-16T07:29:05.311Z,64.87
2018-02-16T07:30:42.201Z,64.87
2018-02-16T07:32:19.403Z,64.85
2018-02-16T07:33:57.170Z,64.80
2018-02-16T07:35:33.644Z,64.78
2018-02-16T07:37:11.405Z,64.70
2018-02-16T07:38:47.712Z,64.69
2018-02-16T07:40:25.310Z,64.69
2018-02-16T07:42:01.734Z,64.70
2018-02-16T07:43:38.170Z,64.72
2018-02-16T07:45:16.952Z,64.74
2018-02-16T07:46:54.041Z,64.78
2018-02-16T07:48:31.130Z,64.79
2018-02-16T07:50:07.437Z,64.81
2018-02-16T07:51:43.758Z,64.82
2018-02-16T07:53:20.549Z,64.79
2018-02-16T07:54:56.958Z,64.77
2018-02-16T07:56:33.317Z,64.73
2018-02-16T07:58:10.926Z,64.68
2018-02-16T07:59:48.388Z,64.66
2018-02-16T08:01:25.418Z,64.65
2018-02-16T08:03:01.820Z,64.65
2018-02-16T08:04:38.186Z,64.64
2018-02-16T08:06:14.925Z,64.64
2018-02-16T08:07:51.339Z,64.65
2018-02-16T08:09:28.569Z,64.63
2018-02-16T08:11:05.195Z,64.62
2018-02-16T08:12:42.596Z,64.63
2018-02-16T08:14:18.899Z,64.65
2018-02-16T08:15:55.575Z,64.68
2018-02-16T08:17:31.900Z,64.69
2018-02-16T08:19:08.588Z,64.70
2018-02-16T08:20:45.023Z,64.71
2018-02-16T08:22:21.560Z,64.73
2018-02-16T08:23:57.923Z,64.73
2018-02-16T08:25:35.843Z,64.73
2018-02-16T08:27:13.282Z,64.76
2018-02-16T08:28:49.580Z,64.78
2018-02-16T08:30:27.927Z,64.80
2018-02-16T08:32:05.678Z,64.80
2018-02-16T08:33:42.077Z,64.81
2018-02-16T08:35:18.397Z,64.86
2018-02-16T08:36:55.890Z,64.87
2018-02-16T08:38:32.903Z,64.89
2018-02-16T08:40:09.508Z,64.90
2018-02-16T08:41:46.837Z,64.92
2018-02-16T08:43:23.254Z,64.95
2018-02-16T08:45:01.990Z,65.00
2018-02-16T08:46:38.861Z,65.02
2018-02-16T08:48:16.239Z,65.07
2018-02-16T08:49:52.603Z,65.10
2018-02-16T08:51:29.274Z,65.11
2018-02-16T08:53:05.715Z,65.12
2018-02-16T08:54:42.180Z,65.18
2018-02-16T08:56:18.692Z,65.24
2018-02-16T08:57:55.484Z,65.27
2018-02-16T08:59:32.010Z,65.32
2018-02-16T09:01:08.523Z,65.36
2018-02-16T09:02:45.010Z,65.34
2018-02-16T09:04:22.089Z,65.36
2018-02-16T09:05:58.409Z,65.37
2018-02-16T09:07:34.819Z,65.37
2018-02-16T09:09:11.236Z,65.36
2018-02-16T09:10:48.448Z,65.36
2018-02-16T09:12:24.836Z,65.38
2018-02-16T09:14:01.817Z,65.37
2018-02-16T09:15:38.352Z,65.38
2018-02-16T09:17:15.858Z,65.41
2018-02-16T09:18:53.152Z,65.46
2018-02-16T09:20:29.436Z,65.49
2018-02-16T09:22:06.733Z,65.49
2018-02-16T09:23:43.473Z,65.47
2018-02-16T09:25:20.626Z,65.50
2018-02-16T09:26:57.031Z,65.53
2018-02-16T09:28:33.379Z,65.56
2018-02-16T09:30:10.364Z,65.55
2018-02-16T09:31:48.138Z,65.54
2018-02-16T09:33:24.504Z,65.52
2018-02-16T09:35:00.812Z,65.56
2018-02-16T09:36:39.464Z,65.55
2018-02-16T09:38:16.020Z,65.56
2018-02-16T09:39:54.178Z,65.59
2018-02-16T09:41:30.566Z,65.64
2018-02-16T09:43:07.300Z,65.68
2018-02-16T09:44:44.432Z,65.71
2018-02-16T09:46:21.343Z,65.71
2018-02-16T09:47:58.280Z,65.72
2018-02-16T09:49:35.707Z,65.74
2018-02-16T09:51:12.790Z,65.76
2018-02-16T09:52:50.232Z,65.74
2018-02-16T09:54:26.905Z,65.75
2018-02-16T09:56:03.871Z,65.76
2018-02-16T09:57:41.093Z,65.74
2018-02-16T09:59:18.056Z,65.75
2018-02-16T10:00:54.620Z,65.76
2018-02-16T10:02:31.813Z,65.73
2018-02-16T10:04:09.136Z,65.75
2018-02-16T10:05:45.682Z,65.79
2018-02-16T10:07:22.447Z,65.81
2018-02-16T10:08:59.976Z,65.83
2018-02-16T10:10:36.542Z,65.85
2018-02-16T10:12:13.852Z,65.88
2018-02-16T10:13:50.626Z,65.90
2018-02-16T10:15:31.702Z,65.89
2018-02-16T10:17:09.304Z,65.88
2018-02-16T10:18:45.982Z,65.89
2018-02-16T10:20:22.686Z,65.92
2018-02-16T10:22:00.104Z,65.93
2018-02-16T10:23:37.668Z,65.96
2018-02-16T10:25:13.995Z,65.96
2018-02-16T10:26:50.479Z,65.93
2018-02-16T10:28:28.218Z,65.92
2018-02-16T10:30:05.660Z,65.94
2018-02-16T10:31:42.340Z,65.95
2018-02-16T10:33:18.733Z,65.96
2018-02-16T10:34:55.727Z,66.00
2018-02-16T10:36:32.114Z,66.00
2018-02-16T10:38:08.430Z,66.00
2018-02-16T10:39:44.889Z,66.02
2018-02-16T10:41:21.772Z,66.02
2018-02-16T10:42:58.274Z,66.03
2018-02-16T10:44:34.609Z,66.06
2018-02-16T10:46:11.718Z,66.06
2018-02-16T10:47:48.597Z,66.07
2018-02-16T10:49:24.945Z,66.05
2018-02-16T10:51:01.392Z,66.05
2018-02-16T10:52:37.787Z,66.04
2018-02-16T10:54:14.514Z,66.06
2018-02-16T10:55:50.907Z,66.08
2018-02-16T10:57:27.237Z,66.08
2018-02-16T10:59:03.703Z,66.10
2018-02-16T11:00:44.776Z,66.11
2018-02-16T11:02:25.088Z,66.12
2018-02-16T11:04:03.414Z,66.12
2018-02-16T11:05:43.990Z,66.10
2018-02-16T11:07:25.678Z,66.11
2018-02-16T11:09:06.265Z,66.11
2018-02-16T11:10:42.735Z,66.12
2018-02-16T11:12:19.855Z,66.13
2018-02-16T11:13:56.761Z,66.12
2018-02-16T11:15:33.440Z,66.12
2018-02-16T11:17:09.885Z,66.12
2018-02-16T11:18:46.525Z,66.14
2018-02-16T11:20:23.901Z,66.17
2018-02-16T11:22:00.291Z,66.21
2018-02-16T11:25:06.091Z,66.24
2018-02-16T11:26:43.718Z,66.23
2018-02-16T11:28:20.133Z,66.28
2018-02-16T11:29:57.355Z,66.28
2018-02-16T11:31:34.818Z,66.30
2018-02-16T11:33:11.709Z,66.29
2018-02-16T11:34:48.044Z,66.33
2018-02-16T11:36:24.803Z,66.33
2018-02-16T11:38:01.488Z,66.32
2018-02-16T11:39:38.586Z,66.32
2018-02-16T11:41:15.384Z,66.32
2018-02-16T11:42:51.894Z,66.31
2018-02-16T11:44:28.399Z,66.29
2018-02-16T11:46:08.958Z,66.30
2018-02-16T11:47:45.958Z,66.30
2018-02-16T11:49:23.825Z,66.31
2018-02-16T11:51:01.237Z,66.32
2018-02-16T11:52:39.930Z,66.31
2018-02-16T11:54:16.305Z,66.29
2018-02-16T11:55:53.446Z,66.28
2018-02-16T11:57:30.059Z,66.28
2018-02-16T11:59:07.285Z,66.27
2018-02-16T12:00:43.941Z,66.26
2018-02-16T12:02:20.479Z,66.25
2018-02-16T12:03:57.109Z,66.27
2018-02-16T12:05:34.651Z,66.28
2018-02-16T12:07:11.041Z,66.29
2018-02-16T12:08:47.426Z,66.30
2018-02-16T12:10:23.785Z,66.30
2018-02-16T12:12:00.667Z,66.31
2018-02-16T12:13:37.830Z,66.28
2018-02-16T12:15:16.172Z,66.28
2018-02-16T12:16:54.244Z,66.27
2018-02-16T12:18:31.260Z,66.29
2018-02-16T12:20:08.468Z,66.30
2018-02-16T12:21:44.929Z,66.28
2018-02-16T12:23:21.347Z,66.28
2018-02-16T12:24:58.338Z,66.28
2018-02-16T12:26:36.131Z,66.27
2018-02-16T12:28:13.565Z,66.24
2018-02-16T12:29:50.532Z,66.25
2018-02-16T12:31:27.844Z,66.25
2018-02-16T12:33:04.372Z,66.22
2018-02-16T12:34:41.142Z,66.22
2018-02-16T12:36:17.734Z,66.21
2018-02-16T12:37:54.823Z,66.20
2018-02-16T12:39:32.450Z,66.19
2018-02-16T12:41:09.228Z,66.18
2018-02-16T12:42:45.782Z,66.15
2018-02-16T12:44:22.724Z,66.14
2018-02-16T12:45:59.697Z,66.13
2018-02-16T12:47:36.197Z,66.13
2018-02-16T12:49:13.589Z,66.13
2018-02-16T12:50:50.576Z,66.13
2018-02-16T12:52:27.803Z,66.14
2018-02-16T12:54:04.257Z,66.15
2018-02-16T12:55:40.817Z,66.15
2018-02-16T12:57:17.495Z,66.17
2018-02-16T12:58:54.021Z,66.14
2018-02-16T13:00:30.774Z,66.13
2018-02-16T13:02:07.282Z,66.12
2018-02-16T13:03:44.130Z,66.11
2018-02-16T13:05:21.803Z,66.14
2018-02-16T13:06:58.523Z,66.14
2018-02-16T13:08:35.176Z,66.12
2018-02-16T13:10:12.830Z,66.08
2018-02-16T13:11:49.429Z,66.07
2018-02-16T13:13:30.804Z,66.06
2018-02-16T13:15:07.856Z,66.05
2018-02-16T13:16:45.107Z,66.06
2018-02-16T13:20:02.987Z,66.04
2018-02-16T13:23:21.303Z,66.00
2018-02-16T13:24:57.873Z,65.96
2018-02-16T13:26:34.602Z,65.94
2018-02-16T13:28:11.608Z,65.90
2018-02-16T13:29:48.468Z,65.87
2018-02-16T13:31:26.384Z,65.86
2018-02-16T13:33:06.833Z,65.84
2018-02-16T13:34:47.134Z,65.80
2018-02-16T13:36:24.746Z,65.79
2018-02-16T13:38:02.665Z,65.77
2018-02-16T13:39:41.918Z,65.73
2018-02-16T13:41:19.827Z,65.72
2018-02-16T13:42:57.776Z,65.71
2018-02-16T13:44:38.441Z,65.70
2018-02-16T13:46:17.973Z,65.69
2018-02-16T13:47:55.383Z,65.68
2018-02-16T13:49:32.685Z,65.66
2018-02-16T13:51:09.760Z,65.65
2018-02-16T13:52:47.488Z,65.66
2018-02-16T13:54:25.272Z,65.68
2018-02-16T13:56:03.621Z,65.67
2018-02-16T13:57:41.010Z,65.67
2018-02-16T13:59:18.537Z,65.64
2018-02-16T14:00:56.783Z,65.64
2018-02-16T14:02:34.436Z,65.63
2018-02-16T14:04:11.231Z,65.63
2018-02-16T14:05:47.793Z,65.64
2018-02-16T14:07:25.093Z,65.62
2018-02-16T14:09:01.720Z,65.62
2018-02-16T14:10:38.348Z,65.61
2018-02-16T14:12:14.750Z,65.56
2018-02-16T14:13:51.340Z,65.56
2018-02-16T14:15:30.305Z,65.51
2018-02-16T14:17:06.881Z,65.52
2018-02-16T14:18:43.913Z,65.51
2018-02-16T14:20:21.110Z,65.50
2018-02-16T14:21:57.682Z,65.49
2018-02-16T14:23:34.181Z,65.46
2018-02-16T14:25:12.581Z,65.44
2018-02-16T14:26:50.073Z,65.43
2018-02-16T14:28:27.104Z,65.42
2018-02-16T14:30:04.112Z,65.40
2018-02-16T14:31:41.507Z,65.40
2018-02-16T14:33:17.896Z,65.36
2018-02-16T14:34:54.391Z,65.34
2018-02-16T14:36:31.452Z,65.34
2018-02-16T14:38:09.159Z,65.29
2018-02-16T14:39:46.516Z,65.27
2018-02-16T14:41:22.949Z,65.24
2018-02-16T14:42:59.642Z,65.20
2018-02-16T14:44:37.345Z,65.18
2018-02-16T14:46:14.064Z,65.16
2018-02-16T14:47:50.600Z,65.13
2018-02-16T14:49:28.113Z,65.10
2018-02-16T14:51:05.256Z,65.07
2018-02-16T14:52:42.070Z,65.06
2018-02-16T14:54:19.950Z,65.02
2018-02-16T14:55:57.497Z,64.97
2018-02-16T14:57:35.849Z,64.96
2018-02-16T14:59:12.507Z,64.88
2018-02-16T15:00:49.107Z,64.90
2018-02-16T15:02:25.668Z,64.86
2018-02-16T15:04:03.241Z,64.83
2018-02-16T15:05:40.565Z,64.82
2018-02-16T15:07:17.949Z,64.80
2018-02-16T15:08:54.466Z,64.77
2018-02-16T15:10:32.022Z,64.76
2018-02-16T15:12:08.704Z,64.74
2018-02-16T15:13:46.171Z,64.73
2018-02-16T15:15:23.933Z,64.72
2018-02-16T15:17:01.134Z,64.69
2018-02-16T15:18:37.790Z,64.67
2018-02-16T15:20:16.392Z,64.66
2018-02-16T15:21:54.112Z,64.66
2018-02-16T15:23:32.519Z,64.64
2018-02-16T15:25:09.575Z,64.62
2018-02-16T15:26:46.477Z,64.60
2018-02-16T15:28:23.341Z,64.57
2018-02-16T15:30:01.208Z,64.54
2018-02-16T15:31:38.403Z,64.52
2018-02-16T15:33:15.129Z,64.50
2018-02-16T15:34:52.098Z,64.48
2018-02-16T15:36:34.075Z,64.46
2018-02-16T15:38:11.506Z,64.43
2018-02-16T15:39:49.353Z,64.38
2018-02-16T15:41:28.635Z,64.34
2018-02-16T15:43:05.496Z,64.30
2018-02-16T15:44:42.309Z,64.29
2018-02-16T15:46:38.548Z,64.27
2018-02-16T15:48:16.913Z,64.25
2018-02-16T15:49:53.992Z,64.23
2018-02-16T15:51:31.562Z,64.22
2018-02-16T15:53:08.441Z,64.21
2018-02-16T15:54:44.895Z,64.20
2018-02-16T15:56:23.682Z,64.19
2018-02-16T15:58:00.915Z,64.15
2018-02-16T15:59:37.849Z,64.14
2018-02-16T16:01:16.048Z,64.14
2018-02-16T16:02:53.301Z,64.11
2018-02-16T16:04:31.126Z,64.08
2018-02-16T16:06:08.431Z,64.06
2018-02-16T16:07:45.085Z,64.04
2018-02-16T16:09:22.926Z,64.00
2018-02-16T16:10:59.460Z,63.96
2018-02-16T16:12:42.191Z,63.96
2018-02-16T16:14:19.354Z,63.95
2018-02-16T16:16:03.573Z,63.94
2018-02-16T16:17:39.985Z,63.93
2018-02-16T16:19:17.757Z,63.91
2018-02-16T16:20:54.938Z,63.89
2018-02-16T16:22:31.653Z,63.88
2018-02-16T16:24:08.044Z,63.87
2018-02-16T16:25:45.339Z,63.85
2018-02-16T16:27:21.967Z,63.83
2018-02-16T16:28:59.609Z,63.82
2018-02-16T16:30:36.286Z,63.79
2018-02-16T16:32:14.347Z,63.74
2018-02-16T16:33:51.885Z,63.73
2018-02-16T16:35:28.980Z,63.69
2018-02-16T16:37:05.511Z,63.66
2018-02-16T16:38:41.833Z,63.64
2018-02-16T16:40:18.315Z,63.62
2018-02-16T16:41:55.215Z,63.59
2018-02-16T16:43:31.646Z,63.57
2018-02-16T16:45:08.141Z,63.53
2018-02-16T16:46:45.141Z,63.51
2018-02-16T16:48:22.166Z,63.44
2018-02-16T16:49:58.521Z,63.39
2018-02-16T16:51:34.850Z,63.36
2018-02-16T16:53:11.453Z,63.33
2018-02-16T16:54:48.697Z,63.29
2018-02-16T16:56:25.886Z,63.25
2018-02-16T16:58:03.229Z,63.24
2018-02-16T16:59:39.687Z,63.22
2018-02-16T17:01:18.688Z,63.19
2018-02-16T17:02:55.285Z,63.16
2018-02-16T17:04:35.316Z,63.13
2018-02-16T17:06:11.970Z,63.10
2018-02-16T17:07:53.105Z,63.08
2018-02-16T17:09:32.037Z,63.03
2018-02-16T17:11:10.437Z,62.97
2018-02-16T17:12:47.647Z,62.93
2018-02-16T17:14:24.482Z,62.89
2018-02-16T17:16:01.689Z,62.85
2018-02-16T17:19:27.677Z,62.82
2018-02-16T17:21:04.636Z,62.82
2018-02-16T17:22:43.187Z,62.81
2018-02-16T17:24:20.627Z,62.80
2018-02-16T17:25:57.344Z,62.78
2018-02-16T17:27:34.128Z,62.76
2018-02-16T17:29:11.278Z,62.75
2018-02-16T17:30:47.926Z,62.69
2018-02-16T17:32:27.098Z,62.63
2018-02-16T17:34:04.304Z,62.56
2018-02-16T17:35:40.661Z,62.50
2018-02-16T17:37:22.893Z,62.45
2018-02-16T17:39:01.294Z,62.41
2018-02-16T17:40:38.311Z,62.35
2018-02-16T17:42:14.868Z,62.29
2018-02-16T17:43:51.394Z,62.31
2018-02-16T17:45:29.209Z,62.29
2018-02-16T17:47:06.021Z,62.26
2018-02-16T17:48:43.485Z,62.24
2018-02-16T17:50:20.425Z,62.21
2018-02-16T17:51:56.856Z,62.21
2018-02-16T17:53:33.691Z,62.19
2018-02-16T17:55:10.104Z,62.15
2018-02-16T17:56:46.553Z,62.11
2018-02-16T17:58:22.974Z,62.09
2018-02-16T17:59:59.817Z,62.06
2018-02-16T18:01:37.628Z,62.02
2018-02-16T18:03:18.927Z,61.99
2018-02-16T18:04:55.470Z,61.97
2018-02-16T18:06:32.380Z,61.95
2018-02-16T18:08:09.787Z,61.93
2018-02-16T18:09:47.386Z,61.92
2018-02-16T18:11:24.065Z,61.91
2018-02-16T18:13:01.016Z,61.90
2018-02-16T18:14:37.552Z,61.88
2018-02-16T18:16:14.381Z,61.87
2018-02-16T18:17:50.898Z,61.85
2018-02-16T18:19:27.624Z,61.81
2018-02-16T18:21:04.395Z,61.78
2018-02-16T18:22:41.098Z,61.76
2018-02-16T18:24:18.285Z,61.73
2018-02-16T18:25:55.876Z,61.71
2018-02-16T18:27:33.138Z,61.67
2018-02-16T18:29:12.110Z,61.65
2018-02-16T18:30:48.729Z,61.63
2018-02-16T18:32:32.748Z,61.62
2018-02-16T18:34:09.163Z,61.59
2018-02-16T18:35:46.576Z,61.57
2018-02-16T18:37:23.268Z,61.55
2018-02-16T18:39:00.087Z,61.52
2018-02-16T18:40:37.912Z,61.50
2018-02-16T18:42:15.217Z,61.48
2018-02-16T18:43:51.672Z,61.45
2018-02-16T18:45:30.358Z,61.42
2018-02-16T18:47:07.184Z,61.40
2018-02-16T18:48:44.273Z,61.35
2018-02-16T18:50:20.865Z,61.30
2018-02-16T18:51:57.778Z,61.23
2018-02-16T18:53:34.498Z,61.16
2018-02-16T18:56:46.401Z,61.04
2018-02-16T18:58:23.476Z,60.96
2018-02-16T19:00:00.387Z,60.95
2018-02-16T19:01:39.132Z,60.94
2018-02-16T19:03:18.497Z,60.96
2018-02-16T19:04:56.824Z,60.96
2018-02-16T19:06:33.241Z,60.96
2018-02-16T19:08:10.429Z,60.95
2018-02-16T19:09:47.739Z,60.93
2018-02-16T19:11:24.834Z,60.92
2018-02-16T19:13:01.395Z,60.91
2018-02-16T19:14:38.776Z,60.89
2018-02-16T19:16:15.556Z,60.86
2018-02-16T19:17:52.451Z,60.87
2018-02-16T19:19:29.194Z,60.87
2018-02-16T19:21:05.751Z,60.85
2018-02-16T19:22:42.295Z,60.83
2018-02-16T19:24:19.059Z,60.81
2018-02-16T19:25:55.559Z,60.80
2018-02-16T19:27:32.214Z,60.77
2018-02-16T19:29:09.545Z,60.74
2018-02-16T19:30:47.299Z,60.72
2018-02-16T19:32:23.710Z,60.69
2018-02-16T19:34:00.287Z,60.64
2018-02-16T19:46:54.698Z,60.46
2018-02-16T19:48:31.128Z,60.47
2018-02-16T19:50:07.640Z,60.47
2018-02-16T19:51:45.086Z,60.44
2018-02-16T19:53:21.572Z,60.42
2018-02-16T19:54:58.796Z,60.44
2018-02-16T19:56:35.966Z,60.45
2018-02-16T19:58:13.682Z,60.44
2018-02-16T19:59:50.071Z,60.42
2018-02-16T20:01:27.133Z,60.38
2018-02-16T20:03:04.749Z,60.32
2018-02-16T20:04:41.547Z,60.32
2018-02-16T20:06:18.641Z,60.30
2018-02-16T20:07:55.354Z,60.26
2018-02-16T20:09:32.593Z,60.23
2018-02-16T20:11:09.460Z,60.19
2018-02-16T20:12:45.970Z,60.18
2018-02-16T20:14:22.421Z,60.14
2018-02-16T20:15:59.913Z,60.10
2018-02-16T20:17:36.949Z,60.07
2018-02-16T20:19:13.401Z,60.04
2018-02-16T20:20:49.911Z,60.02
2018-02-16T20:22:27.246Z,59.99
2018-02-16T20:24:04.960Z,60.00
2018-02-16T20:25:43.521Z,59.99
2018-02-16T20:27:19.931Z,59.99
2018-02-16T20:28:56.387Z,59.96
2018-02-16T20:30:33.388Z,59.97
2018-02-16T20:32:09.795Z,59.97
2018-02-16T20:33:47.073Z,59.97
2018-02-16T20:35:25.619Z,59.96
2018-02-16T20:37:02.785Z,59.93
2018-02-16T20:38:42.334Z,59.88
2018-02-16T20:40:18.779Z,59.85
2018-02-16T20:41:55.248Z,59.78
2018-02-16T20:43:32.955Z,59.76
2018-02-16T20:45:09.287Z,59.76
2018-02-16T20:46:47.081Z,59.77
2018-02-16T20:48:23.761Z,59.76
2018-02-16T20:50:02.104Z,59.77
2018-02-16T20:51:38.502Z,59.75
2018-02-16T20:53:15.049Z,59.73
2018-02-16T20:54:51.452Z,59.70
2018-02-16T20:56:28.651Z,59.69
2018-02-16T20:58:05.270Z,59.67
2018-02-16T20:59:42.594Z,59.65
2018-02-16T21:01:20.552Z,59.65
2018-02-16T21:02:59.015Z,59.64
2018-02-16T21:04:35.426Z,59.61
2018-02-16T21:06:11.869Z,59.60
2018-02-16T21:07:48.310Z,59.59
2018-02-16T21:09:26.418Z,59.58
2018-02-16T21:11:06.836Z,59.59
2018-02-16T21:14:22.104Z,59.56